.
WxDataArchive / Data Records for 2011-07-18
2011-07-17 July 2011 2011-07-19

Data Records for Monday, 18 July 2011

Time	Temp	Chill	HIndex	Humid	Dewpt	 Wind 	HiWind	WindDir	Rain 	Barom 
-----	----	-----	------	-----	-----	------	------	-------	-----	----- 
00:00	80.1	80.1	82.4	64	66.8	0	0	---	0.00	30.029 
00:05	79.9	79.9	82.2	65	67.1	0	0	---	0.00	30.029 
00:10	79.8	79.8	82.1	65	67.0	0	0	---	0.00	30.029 
00:15	79.6	79.6	81.9	66	67.2	0	0	---	0.00	30.030 
00:20	79.4	79.4	81.6	66	67.0	0	0	---	0.00	30.030 
00:25	79.2	79.2	81.5	67	67.3	0	0	---	0.00	30.030 
00:30	79.0	79.0	81.3	68	67.5	0	0	---	0.00	30.027 
00:35	78.8	78.8	81.0	68	67.3	0	0	---	0.00	30.027 
00:40	78.6	78.6	80.8	69	67.6	0	0	---	0.00	30.027 
00:45	78.6	78.6	80.8	69	67.6	0	0	---	0.00	30.025 
00:50	78.5	78.5	80.7	69	67.5	0	0	---	0.00	30.025 
00:55	78.5	78.5	80.7	69	67.5	0	0	---	0.00	30.025 
01:00	78.3	78.3	80.4	70	67.7	0	0	---	0.00	30.021 
01:05	78.3	78.3	80.4	70	67.7	0	0	---	0.00	30.021 
01:10	78.1	78.1	80.2	70	67.5	0	0	---	0.00	30.021 
01:15	77.9	77.9	79.9	71	67.7	0	0	---	0.00	30.025 
01:20	77.7	77.7	79.7	71	67.5	0	0	---	0.00	30.025 
01:25	77.7	77.7	79.7	71	67.5	0	0	---	0.00	30.025 
01:30	77.6	77.6	79.5	72	67.8	0	0	---	0.00	30.022 
01:35	77.4	77.4	79.3	72	67.6	0	0	---	0.00	30.022 
01:40	77.4	77.4	79.3	72	67.6	0	0	---	0.00	30.022 
01:45	77.2	77.2	79.0	73	67.9	0	0	---	0.00	30.023 
01:50	77.2	77.2	79.0	73	67.9	0	0	---	0.00	30.023 
01:55	77.0	77.0	78.7	73	67.7	0	0	---	0.00	30.023 
02:00	77.0	77.0	78.7	73	67.7	0	0	---	0.00	30.021 
02:05	77.2	77.2	79.0	73	67.9	0	0	---	0.00	30.021 
02:10	77.6	77.6	79.5	72	67.8	0	0	---	0.00	30.021 
02:15	77.6	77.6	79.5	72	67.8	0	0	---	0.00	30.024 
02:20	77.7	77.7	79.7	71	67.5	0	0	---	0.00	30.024 
02:25	78.1	78.1	80.2	71	67.9	0	1	292	0.00	30.024 
02:30	78.1	78.1	80.2	71	67.9	0	0	---	0.00	30.025 
02:35	78.3	78.3	80.5	71	68.1	0	1	292	0.00	30.025 
02:40	78.5	78.5	80.8	71	68.3	0	1	292	0.00	30.025 
02:45	78.5	78.5	80.7	70	67.9	0	0	---	0.00	30.029 
02:50	78.5	78.5	80.7	70	67.9	0	1	292	0.00	30.029 
02:55	78.5	78.5	80.7	70	67.9	0	0	---	0.00	30.029 
03:00	78.3	78.3	80.5	71	68.1	0	1	292	0.00	30.026 
03:05	78.3	78.3	80.4	70	67.7	0	1	292	0.00	30.026 
03:10	78.5	78.5	80.7	70	67.9	0	0	---	0.00	30.026 
03:15	78.3	78.3	80.4	70	67.7	0	0	---	0.00	30.024 
03:20	78.1	78.1	80.2	71	67.9	0	0	---	0.00	30.024 
03:25	77.9	77.9	79.9	71	67.7	0	0	---	0.00	30.024 
03:30	77.9	77.9	79.9	72	68.1	0	0	---	0.00	30.024 
03:35	77.7	77.7	79.7	73	68.3	0	0	---	0.00	30.024 
03:40	77.7	77.7	79.7	73	68.3	0	0	---	0.00	30.024 
03:45	77.6	77.6	79.5	73	68.2	0	0	---	0.00	30.013 
03:50	77.4	77.4	79.3	74	68.4	0	0	---	0.00	30.013 
03:55	77.4	77.4	79.3	74	68.4	0	0	---	0.00	30.013 
04:00	77.2	77.2	79.0	75	68.6	0	0	---	0.00	30.022 
04:05	77.2	77.2	79.0	75	68.6	0	0	---	0.00	30.022 
04:10	77.2	77.2	79.0	76	69.0	0	1	292	0.00	30.022 
04:15	77.2	77.2	79.0	76	69.0	0	0	---	0.00	30.021 
04:20	77.2	77.2	79.0	76	69.0	0	0	---	0.00	30.021 
04:25	77.0	77.0	78.7	76	68.8	0	1	292	0.00	30.021 
04:30	77.0	77.0	78.7	77	69.2	0	0	---	0.00	30.022 
04:35	77.0	77.0	78.7	77	69.2	0	0	---	0.00	30.022 
04:40	76.8	76.8	78.4	77	69.0	0	0	---	0.00	30.022 
04:45	76.8	76.8	78.3	78	69.4	0	0	---	0.00	30.024 
04:50	77.0	77.0	78.6	78	69.6	0	1	292	0.00	30.024 
04:55	77.0	77.0	78.6	78	69.6	0	0	---	0.00	30.024 
05:00	76.8	76.8	78.3	78	69.4	0	0	---	0.00	30.023 
05:05	76.8	76.8	78.3	78	69.4	0	0	---	0.00	30.023 
05:10	76.8	76.8	78.3	79	69.8	0	0	---	0.00	30.023 
05:15	77.0	77.0	78.6	79	70.0	0	1	292	0.00	30.025 
05:20	76.8	76.8	78.3	79	69.8	0	0	---	0.00	30.025 
05:25	76.8	76.8	78.3	79	69.8	0	1	292	0.00	30.025 
05:30	76.8	76.8	78.2	80	70.1	0	0	---	0.00	30.027 
05:35	77.0	77.0	78.6	80	70.3	0	1	292	0.00	30.027 
05:40	77.0	77.0	78.6	80	70.3	0	1	292	0.00	30.027 
05:45	77.0	77.0	78.6	80	70.3	0	1	292	0.00	30.026 
05:50	77.0	77.0	78.6	80	70.3	0	0	---	0.00	30.026 
05:55	76.8	76.8	78.2	80	70.1	0	1	292	0.00	30.026 
06:00	77.0	77.0	78.5	81	70.7	0	1	292	0.00	30.032 
06:05	77.0	77.0	78.5	81	70.7	0	1	292	0.00	30.032 
06:10	77.0	77.0	78.5	81	70.7	0	1	292	0.00	30.032 
06:15	76.8	76.8	78.2	81	70.5	0	0	---	0.00	30.023 
06:20	76.8	76.8	78.2	81	70.5	0	1	292	0.00	30.023 
06:25	76.8	76.8	78.2	81	70.5	0	1	292	0.00	30.023 
06:30	76.8	76.8	78.2	82	70.9	0	0	---	0.00	30.019 
06:35	76.8	76.8	78.2	82	70.9	0	1	292	0.00	30.019 
06:40	76.8	76.8	78.2	82	70.9	0	1	292	0.00	30.019 
06:45	76.8	76.8	78.1	83	71.2	0	1	292	0.00	30.023 
06:50	77.0	77.0	78.5	83	71.4	0	1	292	0.00	30.023 
06:55	77.0	77.0	78.5	83	71.4	0	3	292	0.00	30.023 
07:00	77.0	77.0	78.5	83	71.4	0	2	292	0.00	30.012 
07:05	77.0	77.0	78.5	83	71.4	0	2	292	0.00	30.012 
07:10	77.2	77.2	78.8	83	71.6	0	1	292	0.00	30.012 
07:15	77.2	77.2	78.8	83	71.6	0	1	292	0.00	30.010 
07:20	77.4	77.4	79.2	83	71.8	0	2	292	0.00	30.010 
07:25	77.4	77.4	79.2	83	71.8	1	4	270	0.00	30.010 
07:30	77.6	77.6	79.6	83	72.0	1	2	270	0.00	30.012 
07:35	77.7	77.7	79.8	83	72.1	1	2	270	0.00	30.012 
07:40	77.9	77.9	80.2	83	72.3	1	3	225	0.00	30.012 
07:45	78.1	78.1	80.6	83	72.5	1	5	270	0.00	30.011 
07:50	78.3	78.3	80.9	82	72.3	1	4	270	0.00	30.011 
07:55	78.5	78.5	81.3	82	72.5	1	3	270	0.00	30.011 
08:00	78.6	78.6	81.5	82	72.6	1	3	270	0.00	30.012 
08:05	78.6	78.6	81.5	82	72.6	1	3	270	0.00	30.012 
08:10	78.8	78.8	81.9	81	72.5	1	4	270	0.00	30.012 
08:15	78.8	78.8	81.9	81	72.5	1	3	292	0.00	30.012 
08:20	79.0	79.0	82.3	81	72.7	2	3	270	0.00	30.012 
08:25	79.0	79.0	82.3	81	72.7	1	4	270	0.00	30.012 
08:30	79.2	79.2	82.7	81	72.8	1	3	270	0.00	30.010 
08:35	79.2	79.2	82.7	81	72.8	0	3	270	0.00	30.010 
08:40	79.4	79.4	83.1	81	73.0	2	5	270	0.00	30.010 
08:45	79.4	79.4	83.0	80	72.7	2	4	270	0.00	30.014 
08:50	79.6	79.6	83.5	81	73.2	1	3	270	0.00	30.014 
08:55	79.6	79.6	83.4	80	72.9	2	4	270	0.00	30.014 
09:00	79.8	79.8	83.8	80	73.1	1	3	270	0.00	30.011 
09:05	80.1	80.1	84.4	80	73.4	2	3	270	0.00	30.011 
09:10	80.5	80.5	85.1	79	73.4	2	5	292	0.00	30.011 
09:15	80.9	80.9	85.8	78	73.4	1	4	292	0.00	30.012 
09:20	80.9	80.9	85.8	78	73.4	2	5	292	0.00	30.012 
09:25	80.9	80.9	85.8	78	73.4	2	4	315	0.00	30.012 
09:30	81.2	81.2	86.5	78	73.7	2	5	292	0.00	30.016 
09:35	81.8	81.8	87.8	78	74.2	1	3	292	0.00	30.016 
09:40	82.6	82.6	89.2	76	74.2	2	4	292	0.00	30.016 
09:45	83.4	83.4	90.7	75	74.6	1	3	292	0.00	30.011 
09:50	84.0	84.0	91.1	72	74.0	1	3	292	0.00	30.011 
09:55	84.3	84.3	91.8	72	74.3	1	4	292	0.00	30.011 
10:00	84.3	84.3	91.5	71	73.8	2	5	292	0.00	30.009 
10:05	84.3	84.3	91.1	70	73.4	2	4	292	0.00	30.009 
10:10	84.5	84.5	91.9	71	74.0	2	4	292	0.00	30.009 
10:15	84.7	84.7	91.7	69	73.4	2	4	292	0.00	30.008 
10:20	84.7	84.7	91.7	69	73.4	1	5	270	0.00	30.008 
10:25	85.3	85.3	92.6	68	73.5	2	5	270	0.00	30.008 
10:30	85.5	85.5	92.7	67	73.3	2	5	270	0.00	30.009 
10:35	85.7	85.7	93.1	67	73.4	2	4	270	0.00	30.009 
10:40	85.9	85.9	92.8	65	72.7	3	5	270	0.00	30.009 
10:45	85.9	85.9	92.8	65	72.7	3	4	292	0.00	30.010 
10:50	86.1	86.1	92.8	64	72.5	2	4	292	0.00	30.010 
10:55	86.3	86.3	93.6	65	73.1	2	3	315	0.00	30.010 
11:00	86.7	86.7	94.5	65	73.5	2	4	292	0.00	30.005 
11:05	87.4	87.4	95.2	63	73.2	2	5	270	0.00	30.005 
11:10	87.4	87.4	95.7	64	73.7	2	5	292	0.00	30.005 
11:15	87.8	87.8	96.1	63	73.6	2	4	292	0.00	29.996 
11:20	88.2	88.2	96.1	61	73.0	2	5	270	0.00	29.996 
11:25	88.4	88.4	96.5	61	73.2	2	5	292	0.00	29.996 
11:30	88.8	88.8	96.4	59	72.6	2	5	270	0.00	30.004 
11:35	89.3	89.3	97.0	58	72.5	2	4	292	0.00	30.004 
11:40	89.5	89.5	98.0	59	73.2	2	3	292	0.00	30.004 
11:45	90.1	90.1	98.3	57	72.8	2	4	292	0.00	30.007 
11:50	90.1	90.1	97.7	56	72.2	3	5	292	0.00	30.007 
11:55	90.1	90.1	98.3	57	72.8	2	5	270	0.00	30.007 
12:00	90.3	90.3	98.2	56	72.4	2	6	270	0.00	30.007 
12:05	90.3	90.3	98.2	56	72.4	2	6	270	0.00	30.007 
12:10	90.5	90.5	98.6	56	72.6	3	4	270	0.00	30.007 
12:15	90.3	90.3	98.2	56	72.4	4	6	292	0.00	30.008 
12:20	90.5	90.5	100.3	59	74.2	2	4	292	0.00	30.008 
12:25	91.0	91.0	99.7	56	73.1	3	5	292	0.00	30.008 
12:30	91.2	91.2	100.2	56	73.3	2	5	270	0.00	30.000 
12:35	91.2	91.2	99.6	55	72.7	3	7	270	0.00	30.000 
12:40	91.6	91.6	99.9	54	72.6	2	4	270	0.00	30.000 
12:45	91.6	91.6	100.5	55	73.1	3	7	270	0.00	29.995 
12:50	92.3	92.3	102.2	55	73.7	3	6	270	0.00	29.995 
12:55	92.3	92.3	102.2	55	73.7	3	9	270	0.00	29.995 
13:00	92.3	92.3	102.2	55	73.7	3	6	270	0.00	29.992 
13:05	91.8	91.8	101.6	56	73.8	3	5	270	0.00	29.992 
13:10	91.8	91.8	101.0	55	73.3	3	5	270	0.00	29.992 
13:15	92.1	92.1	102.9	57	74.6	3	5	270	0.00	29.988 
13:20	92.3	92.3	103.4	57	74.8	2	7	270	0.00	29.988 
13:25	92.3	92.3	102.8	56	74.3	2	6	270	0.00	29.988 
13:30	92.5	92.5	103.3	56	74.5	3	6	292	0.00	29.973 
13:35	92.7	92.7	102.5	54	73.6	3	6	270	0.00	29.973 
13:40	92.5	92.5	103.3	56	74.5	3	6	270	0.00	29.973 
13:45	92.9	92.9	102.9	54	73.8	3	7	270	0.00	29.970 
13:50	92.7	92.7	103.1	55	74.1	3	5	270	0.00	29.970 
13:55	92.7	92.7	102.5	54	73.6	4	7	270	0.00	29.970 
14:00	92.9	92.9	102.9	54	73.8	3	6	270	0.00	29.964 
14:05	92.9	92.9	103.6	55	74.3	3	6	270	0.00	29.964 
14:10	92.9	92.9	102.9	54	73.8	4	7	270	0.00	29.964 
14:15	93.2	93.2	104.3	55	74.6	3	7	270	0.00	29.961 
14:20	93.8	93.8	105.1	54	74.6	2	5	270	0.00	29.961 
14:25	93.6	93.6	103.9	53	73.8	3	7	270	0.00	29.961 
14:30	93.8	93.8	105.1	54	74.6	3	5	270	0.00	29.956 
14:35	93.8	93.8	104.4	53	74.0	3	6	270	0.00	29.956 
14:40	93.4	93.4	104.1	54	74.2	2	5	292	0.00	29.956 
14:45	93.4	93.4	104.1	54	74.2	3	5	292	0.00	29.954 
14:50	93.6	93.6	104.6	54	74.4	2	7	270	0.00	29.954 
14:55	93.4	93.4	104.8	55	74.8	3	6	270	0.00	29.954 
15:00	92.7	92.7	103.1	55	74.1	3	5	270	0.00	29.945 
15:05	92.5	92.5	103.3	56	74.5	3	5	292	0.00	29.945 
15:10	92.5	92.5	103.3	56	74.5	3	6	270	0.00	29.945 
15:15	92.5	92.5	103.9	57	75.0	2	5	270	0.00	29.941 
15:20	92.5	92.5	103.3	56	74.5	4	6	270	0.00	29.941 
15:25	91.6	91.6	103.6	60	75.7	4	8	270	0.00	29.941 
15:30	89.9	89.9	101.2	63	75.6	3	6	315	0.00	29.936 
15:35	89.9	89.9	100.0	61	74.6	1	4	270	0.00	29.936 
15:40	90.1	90.1	97.7	56	72.2	1	3	270	0.00	29.936 
15:45	90.1	90.1	97.2	55	71.7	2	4	270	0.00	29.934 
15:50	89.7	89.7	97.4	57	72.4	1	4	292	0.00	29.934 
15:55	89.3	89.3	97.5	59	73.1	2	5	270	0.00	29.934 
16:00	88.2	88.2	94.7	58	71.5	2	4	270	0.00	29.935 
16:05	87.2	87.2	93.5	60	71.6	2	4	270	0.00	29.935 
16:10	86.7	86.7	93.3	62	72.1	0	3	248	0.00	29.935 
16:15	86.7	86.7	93.3	62	72.1	1	2	248	0.00	29.927 
16:20	87.0	87.0	94.8	64	73.3	1	3	248	0.00	29.927 
16:25	87.8	87.8	97.1	65	74.5	0	2	248	0.00	29.927 
16:30	88.8	88.8	99.5	65	75.5	1	3	248	0.00	29.917 
16:35	89.7	89.7	101.9	65	76.3	2	4	248	0.00	29.917 
16:40	90.5	90.5	102.7	63	76.1	1	4	248	0.00	29.917 
16:45	91.6	91.6	104.3	61	76.2	3	6	270	0.00	29.911 
16:50	92.1	92.1	103.6	58	75.2	3	6	270	0.00	29.911 
16:55	92.5	92.5	103.9	57	75.0	3	6	292	0.00	29.911 
17:00	92.9	92.9	104.3	56	74.8	3	6	270	0.00	29.914 
17:05	92.9	92.9	104.3	56	74.8	2	4	292	0.00	29.914 
17:10	92.5	92.5	103.9	57	75.0	2	5	270	0.00	29.914 
17:15	92.1	92.1	102.3	56	74.1	2	6	270	0.00	29.918 
17:20	92.1	92.1	102.9	57	74.6	3	7	292	0.00	29.918 
17:25	92.3	92.3	102.8	56	74.3	3	5	270	0.00	29.918 
17:30	92.3	92.3	103.4	57	74.8	3	5	292	0.00	29.911 
17:35	92.1	92.1	102.9	57	74.6	3	5	292	0.00	29.911 
17:40	92.3	92.3	103.4	57	74.8	2	3	315	0.00	29.911 
17:45	92.3	92.3	102.2	55	73.7	3	7	270	0.00	29.898 
17:50	92.3	92.3	102.8	56	74.3	3	6	270	0.00	29.898 
17:55	92.7	92.7	103.8	56	74.7	3	5	270	0.00	29.898 
18:00	92.7	92.7	103.1	55	74.1	3	6	270	0.00	29.894 
18:05	92.5	92.5	103.3	56	74.5	3	6	270	0.00	29.894 
18:10	92.3	92.3	102.8	56	74.3	3	6	270	0.00	29.894 
18:15	92.1	92.1	102.9	57	74.6	3	6	270	0.00	29.891 
18:20	92.1	92.1	102.9	57	74.6	3	10	270	0.00	29.891 
18:25	92.1	92.1	102.9	57	74.6	3	6	270	0.00	29.891 
18:30	92.1	92.1	103.6	58	75.2	2	5	270	0.00	29.887 
18:35	91.8	91.8	102.2	57	74.4	3	5	270	0.00	29.887 
18:40	91.4	91.4	102.5	59	75.0	3	5	270	0.00	29.887 
18:45	91.2	91.2	102.6	60	75.3	3	5	292	0.00	29.886 
18:50	91.0	91.0	102.1	60	75.1	3	7	270	0.00	29.886 
18:55	91.0	91.0	102.8	61	75.6	3	5	270	0.00	29.886 
19:00	91.0	91.0	102.1	60	75.1	3	5	270	0.00	29.894 
19:05	91.2	91.2	100.8	57	73.8	3	7	270	0.00	29.894 
19:10	91.2	91.2	100.2	56	73.3	4	7	270	0.00	29.894 
19:15	91.0	91.0	100.3	57	73.6	3	9	270	0.00	29.897 
19:20	91.0	91.0	100.9	58	74.1	3	5	270	0.00	29.897 
19:25	90.7	90.7	100.2	58	73.8	2	5	270	0.00	29.897 
19:30	90.7	90.7	99.6	57	73.3	3	5	270	0.00	29.898 
19:35	90.7	90.7	97.4	53	71.2	4	9	270	0.00	29.898 
19:40	91.0	91.0	98.1	53	71.4	3	7	292	0.00	29.898 
19:45	90.7	90.7	97.4	53	71.2	3	7	270	0.00	29.895 
19:50	90.5	90.5	97.5	54	71.5	2	4	270	0.00	29.895 
19:55	90.3	90.3	97.6	55	71.9	3	5	270	0.00	29.895 
20:00	90.1	90.1	97.7	56	72.2	2	6	270	0.00	29.890 
20:05	89.9	89.9	96.8	55	71.5	3	5	270	0.00	29.890 
20:10	89.7	89.7	96.9	56	71.9	2	5	270	0.00	29.890 
20:15	89.5	89.5	97.4	58	72.7	2	5	292	0.00	29.897 
20:20	89.3	89.3	97.0	58	72.5	2	5	292	0.00	29.897 
20:25	89.0	89.0	95.9	57	71.7	3	6	292	0.00	29.897 
20:30	88.8	88.8	95.4	57	71.6	3	6	270	0.00	29.906 
20:35	88.6	88.6	95.5	58	71.9	2	5	270	0.00	29.906 
20:40	88.6	88.6	95.5	58	71.9	2	5	270	0.00	29.906 
20:45	88.4	88.4	95.1	58	71.7	1	3	270	0.00	29.909 
20:50	88.2	88.2	94.7	58	71.5	2	3	270	0.00	29.909 
20:55	88.0	88.0	94.3	58	71.3	2	4	270	0.00	29.909 
21:00	87.8	87.8	94.3	59	71.7	1	4	270	0.00	29.906 
21:05	87.6	87.6	94.3	60	72.0	2	5	270	0.00	29.906 
21:10	87.4	87.4	93.9	60	71.8	3	4	292	0.00	29.906 
21:15	87.2	87.2	93.9	61	72.1	2	5	292	0.00	29.901 
21:20	87.0	87.0	93.5	61	71.9	2	4	292	0.00	29.901 
21:25	87.0	87.0	93.9	62	72.4	1	4	292	0.00	29.901 
21:30	86.7	86.7	93.3	62	72.1	1	3	292	0.00	29.897 
21:35	86.5	86.5	93.3	63	72.4	1	3	292	0.00	29.897 
21:40	86.3	86.3	92.8	63	72.2	1	4	292	0.00	29.897 
21:45	86.3	86.3	92.8	63	72.2	2	5	292	0.00	29.897 
21:50	86.1	86.1	92.8	64	72.5	1	3	292	0.00	29.897 
21:55	85.9	85.9	92.8	65	72.7	1	4	270	0.00	29.897 
22:00	85.7	85.7	92.7	66	73.0	1	5	270	0.00	29.897 
22:05	85.5	85.5	92.7	67	73.3	1	4	270	0.00	29.897 
22:10	85.3	85.3	92.2	67	73.1	1	4	270	0.00	29.897 
22:15	85.3	85.3	92.6	68	73.5	2	5	270	0.00	29.894 
22:20	85.1	85.1	92.6	69	73.8	1	3	292	0.00	29.894 
22:25	84.9	84.9	92.1	69	73.6	1	3	292	0.00	29.894 
22:30	84.9	84.9	92.1	69	73.6	1	4	292	0.00	29.896 
22:35	84.9	84.9	92.5	70	74.0	1	3	270	0.00	29.896 
22:40	84.7	84.7	92.0	70	73.8	1	4	270	0.00	29.896 
22:45	84.7	84.7	92.4	71	74.2	1	4	270	0.00	29.887 
22:50	84.5	84.5	92.3	72	74.5	1	4	270	0.00	29.887 
22:55	84.3	84.3	92.2	73	74.7	2	6	270	0.00	29.887 
23:00	84.3	84.3	92.2	73	74.7	2	4	270	0.00	29.896 
23:05	84.3	84.3	92.2	73	74.7	1	4	270	0.00	29.896 
23:10	84.1	84.1	91.7	73	74.5	1	3	270	0.00	29.896 
23:15	84.1	84.1	91.7	73	74.5	2	5	270	0.00	29.891 
23:20	84.1	84.1	91.7	73	74.5	2	4	270	0.00	29.891 
23:25	84.0	84.0	91.5	73	74.4	1	3	270	0.00	29.891 
23:30	84.0	84.0	91.8	74	74.8	1	3	270	0.00	29.882 
23:35	83.8	83.8	91.3	74	74.6	2	3	270	0.00	29.882 
23:40	83.8	83.8	91.3	74	74.6	2	5	270	0.00	29.882 
23:45	83.6	83.6	91.2	75	74.8	1	5	292	0.00	29.888 
23:50	83.6	83.6	91.2	75	74.8	2	6	270	0.00	29.888 
23:55	83.6	83.6	91.2	75	74.8	2	6	270	0.00	29.888 

CoCoRaHS
IN-AL-39
A2 Web Hosting
Creative Commons License
GoDaddy
search engine by freefind advanced

loaded 2018-11-14 03:35:58 • last modified 2010-11-18 10:43:29
Privacy PolicyDisclaimer
• wx.awcolley.com is powered by PmWiki v.2002016 •
• all content (unless otherwise noted) © 2018 A W Colley